Time;durP1;ratioP1;P1;durP2;ratioP2;P2;SDS_P1;SDS_P2;PMS_P1;PMS_P2;Temp;Humidity;BMP_temperature;BMP_pressure;BME280_temperature;BME280_humidity;BME280_pressure;Samples;Min_cycle;Max_cycle;Signal;HPM_P1;HPM_P2
2023/08/05 00:02:53;;;;;;;13.05;7.03;;;;;;;19.58;98.54;100465.11;5055564;55;1140956;-66
2023/08/05 00:07:59;;;;;;;14.30;6.78;;;;;;;19.56;98.04;100467.14;5060791;57;1141198;-67
2023/08/05 00:13:04;;;;;;;12.68;7.58;;;;;;;19.49;98.09;100463.98;5035896;57;1140864;-65
2023/08/05 00:18:10;;;;;;;16.10;8.63;;;;;;;19.49;98.55;100461.30;5057107;57;1141066;-66
2023/08/05 00:23:16;;;;;;;13.38;7.83;;;;;;;19.32;98.28;100453.36;5076499;57;1140717;-65
2023/08/05 00:28:22;;;;;;;11.83;7.20;;;;;;;19.15;98.37;100446.92;5057199;57;1140613;-66
2023/08/05 00:33:27;;;;;;;14.20;5.70;;;;;;;19.06;99.14;100455.53;5059156;56;1150032;-66
2023/08/05 00:38:33;;;;;;;8.88;5.53;;;;;;;19.07;99.51;100463.91;5078753;57;1140828;-66
2023/08/05 00:43:38;;;;;;;13.68;7.20;;;;;;;19.10;99.96;100469.39;5079985;55;1138522;-67
2023/08/05 00:48:44;;;;;;;14.87;6.75;;;;;;;18.82;98.40;100474.37;5143698;55;1140848;-66
2023/08/05 00:53:51;;;;;;;14.55;7.53;;;;;;;18.64;99.52;100485.31;5163504;56;1140829;-66
2023/08/05 00:58:57;;;;;;;10.23;6.30;;;;;;;18.58;100.00;100492.22;5109807;56;1140838;-66
2023/08/05 01:04:03;;;;;;;10.38;6.67;;;;;;;18.57;100.00;100494.53;5035613;56;1143124;-65
2023/08/05 01:09:09;;;;;;;10.87;6.77;;;;;;;18.57;100.00;100489.17;4974537;57;1143080;-66
2023/08/05 01:14:14;;;;;;;11.75;6.78;;;;;;;18.58;100.00;100476.14;5020888;56;1143078;-66
2023/08/05 01:19:24;;;;;;;9.18;6.30;;;;;;;18.63;100.00;100480.16;5141996;56;1142833;-66
2023/08/05 01:24:55;;;;;;;12.47;6.10;;;;;;;18.64;100.00;100468.44;5117091;56;1140850;-67
2023/08/05 01:30:01;;;;;;;15.32;5.65;;;;;;;18.65;100.00;100463.39;5024366;56;1142747;-66
2023/08/05 01:35:09;;;;;;;17.32;6.24;;;;;;;18.67;100.00;100458.19;4961695;58;1142743;-65
2023/08/05 01:40:15;;;;;;;14.83;6.50;;;;;;;18.71;100.00;100450.65;4999810;58;1142723;-66
2023/08/05 01:45:21;;;;;;;13.32;8.45;;;;;;;18.76;100.00;100441.09;5019250;58;1143212;-66
2023/08/05 01:50:26;;;;;;;15.90;6.95;;;;;;;18.80;100.00;100432.18;4944160;58;1142727;-66
2023/08/05 01:55:32;;;;;;;14.40;6.40;;;;;;;18.79;100.00;100437.23;4937642;57;1143465;-65
2023/08/05 02:00:38;;;;;;;10.93;5.33;;;;;;;18.68;100.00;100427.72;4921523;58;1142814;-65
2023/08/05 02:05:43;;;;;;;19.15;5.08;;;;;;;18.62;100.00;100439.14;4957803;57;1143018;-66
2023/08/05 02:10:49;;;;;;;8.73;4.22;;;;;;;18.59;100.00;100441.66;4938796;58;1142596;-65
2023/08/05 02:15:55;;;;;;;12.10;4.95;;;;;;;18.52;100.00;100446.48;4888795;58;1140625;-66
2023/08/05 02:21:01;;;;;;;10.10;5.00;;;;;;;18.43;100.00;100443.52;4874539;58;1142655;-66
2023/08/05 02:26:07;;;;;;;5.08;4.37;;;;;;;18.35;100.00;100436.82;4872407;56;1143235;-65
2023/08/05 02:31:14;;;;;;;10.83;6.17;;;;;;;18.35;100.00;100434.98;4878438;57;1141003;-66
2023/08/05 02:36:21;;;;;;;11.72;5.36;;;;;;;18.33;100.00;100433.51;4909736;58;1143017;-67
2023/08/05 02:41:27;;;;;;;10.88;4.85;;;;;;;18.33;100.00;100444.22;4980386;55;1142876;-65
2023/08/05 02:46:32;;;;;;;12.20;4.27;;;;;;;18.15;100.00;100441.23;5010155;56;1152176;-66
2023/08/05 02:51:38;;;;;;;6.83;5.20;;;;;;;18.04;100.00;100444.23;5077619;56;1142798;-66
2023/08/05 02:56:44;;;;;;;9.93;4.62;;;;;;;17.81;100.00;100440.09;5090219;56;1140883;-66
2023/08/05 03:01:50;;;;;;;14.83;5.50;;;;;;;17.80;100.00;100435.73;5119513;56;1140660;-66
2023/08/05 03:06:55;;;;;;;7.28;5.15;;;;;;;17.85;100.00;100437.42;5123079;56;1142772;-66
2023/08/05 03:12:04;;;;;;;7.60;5.28;;;;;;;17.92;100.00;100429.03;5106061;56;1140977;-66
2023/08/05 03:17:09;;;;;;;10.23;5.17;;;;;;;17.92;100.00;100423.69;5021233;56;1140883;-66
2023/08/05 03:22:15;;;;;;;8.18;5.83;;;;;;;17.75;100.00;100427.37;5043127;56;1142778;-66
2023/08/05 03:27:22;;;;;;;13.40;5.47;;;;;;;17.62;100.00;100435.03;5079179;56;1141057;-67
2023/08/05 03:32:29;;;;;;;7.58;5.17;;;;;;;17.66;100.00;100441.75;5026293;57;1143133;-66
2023/08/05 03:37:35;;;;;;;11.87;5.70;;;;;;;17.73;100.00;100458.80;5038416;57;1140771;-66
2023/08/05 03:42:41;;;;;;;14.73;6.05;;;;;;;17.72;100.00;100460.33;5062478;56;1142819;-66
2023/08/05 03:47:49;;;;;;;9.10;5.37;;;;;;;17.70;100.00;100468.52;5043019;56;1143008;-67
2023/08/05 03:52:55;;;;;;;8.00;6.12;;;;;;;17.44;100.00;100457.91;5043661;56;1140671;-67
2023/08/05 03:58:01;;;;;;;21.35;6.42;;;;;;;17.43;100.00;100454.89;5070178;56;1141175;-65
2023/08/05 04:03:06;;;;;;;19.67;6.85;;;;;;;17.44;100.00;100455.23;5067432;56;1143080;-65
2023/08/05 04:08:13;;;;;;;12.33;6.05;;;;;;;17.47;100.00;100460.75;5106637;55;1143049;-66
2023/08/05 04:13:21;;;;;;;7.95;6.00;;;;;;;17.55;100.00;100472.81;5143222;56;1142871;-66
2023/08/05 04:18:27;;;;;;;13.88;6.22;;;;;;;17.64;100.00;100466.99;5127084;55;1140857;-65
2023/08/05 04:23:36;;;;;;;12.03;6.37;;;;;;;17.73;100.00;100465.98;5127355;56;1142801;-65
2023/08/05 04:28:41;;;;;;;9.20;6.75;;;;;;;17.78;100.00;100460.48;5145436;55;1143101;-66
2023/08/05 04:33:48;;;;;;;14.40;5.63;;;;;;;17.62;100.00;100448.40;5121261;56;1140580;-65
2023/08/05 04:38:53;;;;;;;13.67;6.47;;;;;;;17.32;100.00;100438.33;5066787;56;1143130;-66
2023/08/05 04:43:59;;;;;;;10.32;6.47;;;;;;;17.21;100.00;100446.17;5075990;56;1143187;-66
2023/08/05 04:49:07;;;;;;;10.13;6.15;;;;;;;17.21;100.00;100454.19;5056285;56;1142909;-65
2023/08/05 04:54:12;;;;;;;12.10;5.90;;;;;;;17.22;100.00;100462.55;5056908;56;1143269;-67
2023/08/05 04:59:17;;;;;;;16.50;6.40;;;;;;;17.28;100.00;100460.54;5077134;56;1143140;-65
2023/08/05 05:04:23;;;;;;;8.90;6.92;;;;;;;17.29;100.00;100455.53;5045722;56;1143268;-65
2023/08/05 05:09:29;;;;;;;11.45;6.95;;;;;;;17.46;100.00;100460.41;5057607;56;1141018;-66
2023/08/05 05:14:35;;;;;;;12.73;7.42;;;;;;;17.67;100.00;100469.34;5076963;55;1143019;-67
2023/08/05 05:19:41;;;;;;;15.03;6.60;;;;;;;17.87;100.00;100474.18;5057418;56;1142918;-66
2023/08/05 05:24:48;;;;;;;15.75;12.47;;;;;;;18.08;100.00;100474.19;5056861;56;1142854;-66
2023/08/05 05:29:54;;;;;;;16.62;7.70;;;;;;;18.19;100.00;100481.86;5076094;55;1145400;-65
2023/08/05 05:35:00;;;;;;;9.98;7.20;;;;;;;18.46;100.00;100492.72;4990460;56;1143089;-66
2023/08/05 05:40:06;;;;;;;7.22;6.53;;;;;;;18.67;100.00;100493.02;5020564;56;1140921;-67
2023/08/05 05:45:12;;;;;;;11.30;5.60;;;;;;;18.78;100.00;100481.12;5058902;57;1140821;-64
2023/08/05 05:50:19;;;;;;;11.50;6.30;;;;;;;18.85;100.00;100481.58;5078754;56;1142859;-65
2023/08/05 05:55:24;;;;;;;15.98;5.18;;;;;;;18.90;100.00;100487.27;5059909;57;1142609;-68
2023/08/05 06:00:30;;;;;;;8.27;5.50;;;;;;;18.98;100.00;100481.02;5043785;57;1143146;-66
2023/08/05 06:05:36;;;;;;;11.00;5.20;;;;;;;19.15;100.00;100477.25;5079032;56;1140916;-65
2023/08/05 06:10:41;;;;;;;15.00;5.55;;;;;;;19.33;100.00;100479.17;5094566;56;1143280;-66
2023/08/05 06:15:47;;;;;;;5.87;4.42;;;;;;;19.41;100.00;100471.56;5135346;56;1142899;-65
2023/08/05 06:20:52;;;;;;;17.10;4.40;;;;;;;19.45;100.00;100479.59;5154707;56;1140743;-66
2023/08/05 06:25:58;;;;;;;6.87;3.70;;;;;;;19.51;100.00;100472.22;5134526;56;1142885;-67
2023/08/05 06:31:04;;;;;;;5.25;3.80;;;;;;;19.54;100.00;100469.70;5140863;56;1140863;-65
2023/08/05 06:36:09;;;;;;;14.87;4.00;;;;;;;19.55;100.00;100469.52;5137155;55;1141026;-65
2023/08/05 06:41:15;;;;;;;3.95;3.50;;;;;;;19.51;100.00;100463.34;5154615;56;1143772;-66
2023/08/05 06:46:21;;;;;;;6.42;4.25;;;;;;;19.52;100.00;100453.77;5121331;55;1140678;-65
2023/08/05 06:51:27;;;;;;;3.75;3.45;;;;;;;19.58;100.00;100461.09;5127696;56;1140673;-67
2023/08/05 06:56:32;;;;;;;7.03;3.27;;;;;;;19.60;100.00;100463.59;5147912;56;1140800;-66
2023/08/05 07:01:40;;;;;;;3.12;2.55;;;;;;;19.66;100.00;100465.08;5124726;56;1140827;-65
2023/08/05 07:06:45;;;;;;;2.83;2.60;;;;;;;19.73;100.00;100460.31;5121112;55;1140747;-66
2023/08/05 07:11:54;;;;;;;2.30;1.80;;;;;;;19.75;100.00;100464.48;5147666;56;1140654;-66
2023/08/05 07:16:58;;;;;;;3.47;2.12;;;;;;;19.85;100.00;100467.78;5127668;56;1140840;-67
2023/08/05 07:22:04;;;;;;;2.92;2.02;;;;;;;19.85;100.00;100467.78;5058850;56;1141073;-65
2023/08/05 07:27:09;;;;;;;2.70;2.27;;;;;;;19.92;100.00;100457.98;5099234;56;1140879;-67
2023/08/05 07:32:15;;;;;;;3.67;1.80;;;;;;;19.95;100.00;100453.59;5142051;56;1140940;-65
2023/08/05 07:37:21;;;;;;;7.70;2.20;;;;;;;19.97;100.00;100447.55;5127725;56;1140914;-66
2023/08/05 07:42:27;;;;;;;3.77;1.60;;;;;;;20.02;100.00;100447.81;5131566;56;1140826;-66
2023/08/05 07:47:36;;;;;;;17.32;2.58;;;;;;;20.05;100.00;100457.86;5164069;55;1140876;-66
2023/08/05 07:52:40;;;;;;;6.50;1.85;;;;;;;20.07;100.00;100462.55;5124279;56;1143122;-66
2023/08/05 07:57:52;;;;;;;4.60;2.58;;;;;;;20.12;100.00;100454.28;5128013;56;1141346;-66
2023/08/05 08:02:53;;;;;;;14.23;2.50;;;;;;;20.17;100.00;100456.41;5116688;56;1140769;-67
2023/08/05 08:08:00;;;;;;;15.83;2.42;;;;;;;20.19;100.00;100453.03;5072404;56;1143179;-67
2023/08/05 08:13:05;;;;;;;1.67;1.57;;;;;;;20.23;100.00;100429.66;5042973;57;1143151;-66
2023/08/05 08:18:11;;;;;;;3.08;2.80;;;;;;;20.27;100.00;100422.08;5043194;57;1140899;-68
2023/08/05 08:23:17;;;;;;;5.03;3.42;;;;;;;20.29;100.00;100422.73;5062719;56;1140945;-67
2023/08/05 08:28:23;;;;;;;6.03;2.95;;;;;;;20.31;100.00;100412.64;5115589;56;1140507;-67
2023/08/05 08:33:28;;;;;;;8.38;2.20;;;;;;;20.32;100.00;100392.80;5124197;56;1140761;-66
2023/08/05 08:38:34;;;;;;;3.77;2.20;;;;;;;20.31;100.00;100385.27;5146650;56;1140994;-66
2023/08/05 08:43:41;;;;;;;7.07;2.07;;;;;;;20.31;100.00;100397.36;5049045;56;1140991;-66
2023/08/05 08:48:50;;;;;;;2.10;1.87;;;;;;;20.34;100.00;100396.13;5039340;57;1140704;-66
2023/08/05 08:53:57;;;;;;;9.10;2.58;;;;;;;20.36;100.00;100376.67;5058956;57;1141134;-66
2023/08/05 08:59:03;;;;;;;6.95;2.12;;;;;;;20.41;100.00;100380.98;5069458;56;1141081;-66
2023/08/05 09:04:09;;;;;;;10.95;2.17;;;;;;;20.43;100.00;100387.52;5128081;56;1141060;-65
2023/08/05 09:09:14;;;;;;;5.30;1.92;;;;;;;20.50;100.00;100391.11;5051685;56;1142986;-66
2023/08/05 09:14:20;;;;;;;2.10;1.92;;;;;;;20.54;100.00;100387.88;5064016;56;1140863;-66
2023/08/05 09:19:29;;;;;;;2.35;2.00;;;;;;;20.63;100.00;100393.45;5101359;56;1140784;-66
2023/08/05 09:24:36;;;;;;;4.10;2.43;;;;;;;20.76;100.00;100399.54;5128098;56;1140840;-66
2023/08/05 09:29:42;;;;;;;1.90;1.75;;;;;;;20.89;100.00;100394.31;5147708;56;1140681;-66
2023/08/05 09:34:50;;;;;;;2.70;1.75;;;;;;;20.99;100.00;100400.73;5063591;56;1140893;-66
2023/08/05 09:39:55;;;;;;;3.02;1.47;;;;;;;21.04;100.00;100392.42;5043501;56;1141005;-66
2023/08/05 09:45:04;;;;;;;5.30;2.12;;;;;;;21.12;100.00;100396.84;5063688;56;1141005;-66
2023/08/05 09:50:11;;;;;;;8.33;2.00;;;;;;;21.16;100.00;100400.82;5117833;55;1140900;-66
2023/08/05 09:55:19;;;;;;;11.83;1.77;;;;;;;21.24;100.00;100394.50;5139514;55;1141120;-67
2023/08/05 10:00:25;;;;;;;10.32;1.65;;;;;;;21.28;100.00;100381.00;5123753;56;1142897;-67
2023/08/05 10:05:30;;;;;;;7.62;2.00;;;;;;;21.37;100.00;100390.63;5059035;56;1143345;-67
2023/08/05 10:10:38;;;;;;;3.62;1.72;;;;;;;21.44;100.00;100386.13;5067846;55;1140673;-66
2023/08/05 10:15:50;;;;;;;2.53;1.57;;;;;;;21.47;100.00;100381.71;5118190;55;1140752;-65
2023/08/05 10:20:55;;;;;;;3.53;2.03;;;;;;;21.45;100.00;100370.81;5113194;56;1140565;-65
2023/08/05 10:26:06;;;;;;;4.30;2.08;;;;;;;21.45;100.00;100364.92;5065494;56;1140607;-66
2023/08/05 10:31:28;;;;;;;4.83;2.10;;;;;;;21.48;100.00;100370.44;5058761;56;1140816;-66
2023/08/05 10:36:53;;;;;;;4.40;2.55;;;;;;;21.49;100.00;100365.38;5079337;56;1140952;-65
2023/08/05 10:41:55;;;;;;;3.08;1.55;;;;;;;21.50;100.00;100373.27;5058217;56;1141024;-65
2023/08/05 10:47:04;;;;;;;6.28;1.95;;;;;;;21.46;100.00;100367.94;5058557;57;1141115;-65
2023/08/05 10:52:21;;;;;;;3.22;1.78;;;;;;;21.44;100.00;100379.91;5019634;57;1140714;-67
2023/08/05 10:57:42;;;;;;;6.08;2.02;;;;;;;21.39;100.00;100366.52;5074653;57;1140703;-64
2023/08/05 11:02:49;;;;;;;9.95;2.80;;;;;;;21.35;100.00;100364.42;4985055;57;1140908;-67
2023/08/05 11:07:55;;;;;;;13.95;2.10;;;;;;;21.34;100.00;100376.21;5041252;57;1140955;-65
2023/08/05 11:13:01;;;;;;;7.08;2.12;;;;;;;21.34;100.00;100377.05;5002563;57;1143134;-66
2023/08/05 11:18:08;;;;;;;3.77;2.15;;;;;;;21.34;100.00;100378.39;4974125;58;1140495;-66
2023/08/05 11:23:14;;;;;;;8.60;2.22;;;;;;;21.39;100.00;100377.28;4974186;58;1140844;-65
2023/08/05 11:28:21;;;;;;;8.57;2.67;;;;;;;21.39;100.00;100355.75;4974223;58;1140701;-67
2023/08/05 11:33:27;;;;;;;2.83;2.42;;;;;;;21.39;100.00;100346.34;5044727;57;1140747;-65
2023/08/05 11:38:33;;;;;;;2.05;1.82;;;;;;;21.37;100.00;100356.48;5056406;57;1140987;-66
2023/08/05 11:43:41;;;;;;;3.00;2.30;;;;;;;21.35;100.00;100363.08;5056118;57;1140449;-66
2023/08/05 11:48:46;;;;;;;9.18;3.40;;;;;;;21.32;100.00;100362.11;5032121;57;1140730;-66
2023/08/05 11:53:52;;;;;;;12.15;4.12;;;;;;;21.29;100.00;100371.40;5046190;57;1140855;-66
2023/08/05 11:58:57;;;;;;;9.63;3.72;;;;;;;21.28;100.00;100376.45;5057802;56;1143047;-66
2023/08/05 12:04:09;;;;;;;5.72;2.95;;;;;;;21.27;100.00;100369.41;5078814;57;1140628;-66
2023/08/05 12:09:14;;;;;;;2.45;2.17;;;;;;;21.33;100.00;100354.36;5104132;56;1140708;-66
2023/08/05 12:14:20;;;;;;;2.98;2.00;;;;;;;21.34;100.00;100346.10;5134969;56;1141080;-66
2023/08/05 12:19:27;;;;;;;5.65;2.50;;;;;;;21.33;100.00;100356.55;5164005;56;1140827;-66
2023/08/05 12:24:33;;;;;;;7.92;2.72;;;;;;;21.28;100.00;100338.80;5135658;55;1140957;-66
2023/08/05 12:29:38;;;;;;;3.65;2.77;;;;;;;21.28;100.00;100338.80;5139262;55;1140998;-67
2023/08/05 12:34:44;;;;;;;4.15;2.80;;;;;;;21.28;100.00;100340.14;5143618;55;1140949;-66
2023/08/05 12:39:49;;;;;;;4.75;2.87;;;;;;;21.23;100.00;100337.73;5116323;55;1141157;-66
2023/08/05 12:44:55;;;;;;;5.80;2.85;;;;;;;21.22;100.00;100345.47;5141771;55;1140512;-67
2023/08/05 12:50:02;;;;;;;6.00;2.65;;;;;;;21.23;100.00;100339.91;5162330;55;1141106;-67
2023/08/05 12:55:08;;;;;;;7.87;7.08;;;;;;;21.23;100.00;100351.17;5113465;56;1140900;-66
2023/08/05 13:00:14;;;;;;;7.58;5.75;;;;;;;21.19;100.00;100361.95;5043935;56;1140803;-66
2023/08/05 13:05:21;;;;;;;10.88;4.58;;;;;;;21.16;100.00;100369.05;5075346;56;1140974;-66
2023/08/05 13:10:27;;;;;;;6.03;3.65;;;;;;;21.17;100.00;100374.76;5127511;56;1142900;-65
2023/08/05 13:15:33;;;;;;;8.23;3.37;;;;;;;21.19;100.00;100371.37;5131733;56;1141318;-67
2023/08/05 13:20:38;;;;;;;8.78;3.80;;;;;;;21.19;100.00;100369.55;5164381;55;1141089;-67
2023/08/05 13:25:45;;;;;;;5.62;3.92;;;;;;;21.18;100.00;100361.12;5127937;56;1140903;-65
2023/08/05 13:30:50;;;;;;;9.33;3.95;;;;;;;21.18;100.00;100357.09;5128351;56;1141253;-67
2023/08/05 13:35:56;;;;;;;7.92;4.60;;;;;;;21.15;100.00;100352.09;5078765;56;1140699;-66
2023/08/05 13:41:02;;;;;;;9.73;4.83;;;;;;;21.17;100.00;100350.05;5044193;56;1141058;-66
2023/08/05 13:46:08;;;;;;;9.23;4.15;;;;;;;21.13;100.00;100337.99;5044131;56;1140979;-66
2023/08/05 13:51:13;;;;;;;5.30;2.90;;;;;;;21.06;100.00;100341.14;5128433;56;1140868;-66
2023/08/05 13:56:19;;;;;;;4.58;2.58;;;;;;;21.01;100.00;100332.81;5147887;56;1140952;-65
2023/08/05 14:01:24;;;;;;;3.72;2.40;;;;;;;20.94;100.00;100343.48;5128202;56;1141100;-65
2023/08/05 14:06:30;;;;;;;8.60;1.95;;;;;;;20.74;100.00;100339.76;5127901;56;1140995;-66
2023/08/05 14:11:37;;;;;;;7.35;2.47;;;;;;;20.68;100.00;100332.44;5148140;56;1140920;-65
2023/08/05 14:16:43;;;;;;;4.80;2.80;;;;;;;20.62;100.00;100316.55;5127838;56;1140991;-66
2023/08/05 14:21:48;;;;;;;7.58;4.25;;;;;;;20.65;100.00;100317.52;5127915;56;1140886;-66
2023/08/05 14:26:54;;;;;;;17.85;5.22;;;;;;;20.67;100.00;100318.16;5148064;56;1140683;-65
2023/08/05 14:31:59;;;;;;;7.90;4.58;;;;;;;20.68;100.00;100310.43;5124991;56;1143242;-66
2023/08/05 14:37:05;;;;;;;10.45;4.83;;;;;;;20.61;100.00;100311.39;5047889;56;1140713;-66
2023/08/05 14:42:10;;;;;;;5.32;3.28;;;;;;;20.62;100.00;100312.52;5071686;56;1152653;-66
2023/08/05 14:47:16;;;;;;;6.97;4.15;;;;;;;20.62;100.00;100305.80;5118288;56;1141065;-66
2023/08/05 14:52:21;;;;;;;10.58;3.55;;;;;;;20.52;100.00;100305.78;5042344;56;1140903;-65
2023/08/05 14:57:27;;;;;;;9.75;3.42;;;;;;;20.49;100.00;100320.42;5064440;55;1143000;-66
2023/08/05 15:02:33;;;;;;;5.47;3.67;;;;;;;20.41;100.00;100307.11;5077982;56;1140748;-67
2023/08/05 15:07:38;;;;;;;6.33;3.85;;;;;;;20.32;100.00;100314.90;5099062;56;1140900;-66
2023/08/05 15:12:44;;;;;;;5.37;3.23;;;;;;;20.24;100.00;100317.70;5127154;56;1140786;-65
2023/08/05 15:17:50;;;;;;;5.80;3.62;;;;;;;20.12;100.00;100316.00;5115201;56;1140904;-66
2023/08/05 15:22:55;;;;;;;5.47;3.65;;;;;;;19.99;100.00;100308.59;5053873;56;1140754;-66
2023/08/05 15:28:01;;;;;;;3.98;3.05;;;;;;;19.94;100.00;100301.59;5053359;57;1140846;-66
2023/08/05 15:33:07;;;;;;;7.97;5.42;;;;;;;19.96;100.00;100307.63;5073579;56;1140955;-65
2023/08/05 15:38:12;;;;;;;6.65;3.90;;;;;;;19.91;100.00;100310.52;5073336;56;1140850;-65
2023/08/05 15:43:18;;;;;;;5.35;3.37;;;;;;;19.89;100.00;100308.02;5057159;56;1140813;-66
2023/08/05 15:48:23;;;;;;;4.37;2.77;;;;;;;19.80;100.00;100303.77;5092551;56;1140789;-65
2023/08/05 15:53:29;;;;;;;4.62;2.77;;;;;;;19.69;100.00;100297.52;5158102;56;1140966;-66
2023/08/05 15:58:36;;;;;;;4.12;2.65;;;;;;;19.55;100.00;100297.83;5130370;56;1140859;-67
2023/08/05 16:03:42;;;;;;;5.17;4.08;;;;;;;19.49;100.00;100298.55;5121924;56;1140776;-66
2023/08/05 16:08:47;;;;;;;13.53;4.23;;;;;;;19.48;100.00;100289.30;5157732;56;1140967;-65
2023/08/05 16:13:53;;;;;;;10.38;3.70;;;;;;;19.49;100.00;100289.62;5124526;56;1142945;-65
2023/08/05 16:19:00;;;;;;;7.95;5.00;;;;;;;19.42;100.00;100289.51;5051747;56;1142769;-65
2023/08/05 16:24:06;;;;;;;6.80;5.28;;;;;;;19.40;100.00;100284.83;5059574;56;1140913;-68
2023/08/05 16:29:12;;;;;;;7.03;4.55;;;;;;;19.37;100.00;100272.31;5066968;56;1140943;-66
2023/08/05 16:34:17;;;;;;;11.15;6.53;;;;;;;19.39;100.00;100259.56;5053329;56;1140849;-65
2023/08/05 16:39:23;;;;;;;8.30;5.20;;;;;;;19.32;100.00;100250.89;5053239;57;1143109;-65
2023/08/05 16:44:28;;;;;;;14.05;8.65;;;;;;;19.32;100.00;100252.23;5072725;57;1140703;-65
2023/08/05 16:49:34;;;;;;;22.42;12.47;;;;;;;19.29;100.00;100248.56;5053395;57;1142805;-65
2023/08/05 16:54:41;;;;;;;12.80;6.97;;;;;;;19.20;100.00;100251.01;5053364;57;1145203;-67
2023/08/05 16:59:46;;;;;;;7.55;5.65;;;;;;;19.15;100.00;100231.94;5073376;57;1142996;-66
2023/08/05 17:04:54;;;;;;;10.47;7.53;;;;;;;19.13;100.00;100231.79;5053616;57;1141156;-65
2023/08/05 17:09:59;;;;;;;9.98;5.50;;;;;;;19.10;100.00;100226.78;5064220;56;1143172;-66
2023/08/05 17:15:08;;;;;;;7.46;5.50;;;;;;;19.05;100.00;100222.50;5157516;56;1140886;-67
2023/08/05 17:20:13;;;;;;;7.22;5.80;;;;;;;19.00;100.00;100229.73;5093972;56;1140934;-66
2023/08/05 17:25:19;;;;;;;10.50;5.75;;;;;;;18.97;100.00;100233.59;5053674;57;1140744;-66
2023/08/05 17:30:25;;;;;;;11.03;6.03;;;;;;;18.92;100.00;100230.64;5053534;57;1142910;-64
2023/08/05 17:35:35;;;;;;;13.30;7.25;;;;;;;18.83;100.00;100216.13;5072864;56;1142981;-65
2023/08/05 17:40:40;;;;;;;12.53;5.95;;;;;;;18.73;100.00;100216.38;5053066;57;1143268;-65
2023/08/05 17:45:47;;;;;;;9.30;4.30;;;;;;;18.63;100.00;100214.97;5052767;57;1142879;-66
2023/08/05 17:50:59;;;;;;;8.85;4.30;;;;;;;18.53;100.00;100213.81;5073377;57;1140730;-65
2023/08/05 17:56:05;;;;;;;7.40;4.87;;;;;;;18.34;100.00;100207.56;5052883;57;1140873;-66
2023/08/05 18:01:11;;;;;;;4.97;3.77;;;;;;;18.20;100.00;100208.64;5053622;57;1140966;-65
2023/08/05 18:06:16;;;;;;;11.85;3.77;;;;;;;18.13;100.00;100212.22;5084500;56;1140859;-66
2023/08/05 18:11:22;;;;;;;5.10;3.25;;;;;;;18.08;100.00;100222.09;5135841;56;1142888;-65
2023/08/05 18:16:28;;;;;;;3.60;3.20;;;;;;;18.03;100.00;100204.38;5134702;56;1140638;-65
2023/08/05 18:21:33;;;;;;;6.33;3.70;;;;;;;18.13;100.00;100202.84;5110170;56;1140798;-66
2023/08/05 18:26:39;;;;;;;5.60;2.70;;;;;;;18.22;100.00;100197.77;5060339;56;1140929;-66
2023/08/05 18:31:45;;;;;;;3.40;2.40;;;;;;;18.22;100.00;100208.47;5063067;56;1140847;-66
2023/08/05 18:36:51;;;;;;;5.40;2.75;;;;;;;18.09;100.00;100223.77;5072749;57;1141182;-65
2023/08/05 18:41:56;;;;;;;4.60;3.45;;;;;;;17.97;100.00;100218.98;5053038;57;1140768;-65
2023/08/05 18:47:02;;;;;;;2.98;2.35;;;;;;;17.93;100.00;100213.97;5053089;57;1140996;-65
2023/08/05 18:52:08;;;;;;;7.12;2.70;;;;;;;17.76;100.00;100226.23;5088078;56;1140832;-66
2023/08/05 18:57:14;;;;;;;3.40;2.27;;;;;;;17.69;100.00;100239.48;5110587;56;1140747;-65
2023/08/05 19:02:21;;;;;;;2.58;1.95;;;;;;;17.80;100.00;100227.06;5122214;56;1140949;-66
2023/08/05 19:07:27;;;;;;;4.67;2.42;;;;;;;17.94;100.00;100233.53;5110441;56;1140716;-65
2023/08/05 19:12:33;;;;;;;2.40;2.20;;;;;;;17.96;100.00;100232.03;5153448;56;1140794;-65
2023/08/05 19:17:39;;;;;;;6.90;2.30;;;;;;;17.95;100.00;100226.34;5118374;56;1254332;-66
2023/08/05 19:22:47;;;;;;;6.22;3.27;;;;;;;18.00;100.00;100214.13;5124048;56;1140937;-65
2023/08/05 19:27:52;;;;;;;6.70;4.07;;;;;;;17.73;100.00;100211.36;5162688;56;1140946;-65
2023/08/05 19:32:58;;;;;;;8.83;4.30;;;;;;;17.50;100.00;100211.75;5139763;55;1140810;-66
2023/08/05 19:38:03;;;;;;;6.92;3.58;;;;;;;17.34;100.00;100225.98;5135355;55;1140951;-66
2023/08/05 19:43:09;;;;;;;11.80;4.75;;;;;;;17.27;100.00;100231.66;5099101;55;1140838;-66
2023/08/05 19:48:15;;;;;;;6.17;3.65;;;;;;;17.17;100.00;100239.03;5090276;56;1142926;-65
2023/08/05 19:53:20;;;;;;;6.92;3.20;;;;;;;17.17;100.00;100243.87;5117018;56;1140980;-66
2023/08/05 19:58:27;;;;;;;4.12;3.00;;;;;;;17.17;100.00;100229.68;5088778;55;1141137;-66
2023/08/05 20:03:32;;;;;;;13.90;2.92;;;;;;;17.29;100.00;100198.92;5093603;56;1140940;-65
2023/08/05 20:08:38;;;;;;;4.12;2.60;;;;;;;17.46;100.00;100203.23;5009359;56;1143105;-65
2023/08/05 20:13:43;;;;;;;4.87;2.92;;;;;;;17.55;100.00;100203.56;4968640;58;1141001;-66
2023/08/05 20:18:49;;;;;;;10.30;3.10;;;;;;;17.49;100.00;100191.36;5024911;57;1140706;-65
2023/08/05 20:23:57;;;;;;;2.75;1.92;;;;;;;17.40;100.00;100147.79;5057566;57;1142980;-66
2023/08/05 20:29:02;;;;;;;3.72;2.47;;;;;;;17.30;100.00;100124.41;5033344;57;1140753;-65
2023/08/05 20:34:08;;;;;;;3.77;2.40;;;;;;;17.19;100.00;100126.95;4997370;57;1140899;-66
2023/08/05 20:39:13;;;;;;;4.25;2.12;;;;;;;17.14;100.00;100119.94;5038641;57;1140616;-65
2023/08/05 20:44:19;;;;;;;4.33;2.12;;;;;;;17.11;100.00;100140.85;4973691;57;1140952;-65
2023/08/05 20:49:25;;;;;;;3.80;1.85;;;;;;;17.04;100.00;100145.19;5001087;56;1141038;-66
2023/08/05 20:54:30;;;;;;;5.70;1.63;;;;;;;16.94;100.00;100124.52;5125912;56;1140843;-66
2023/08/05 20:59:36;;;;;;;4.37;1.90;;;;;;;16.86;100.00;100102.64;5056562;56;1140693;-66
2023/08/05 21:04:42;;;;;;;6.57;2.10;;;;;;;16.84;100.00;100085.45;5056322;56;1140941;-65
2023/08/05 21:09:47;;;;;;;5.25;1.90;;;;;;;16.88;100.00;100084.61;5106436;56;1140871;-66
2023/08/05 21:14:53;;;;;;;2.77;2.00;;;;;;;16.95;100.00;100076.77;5142951;56;1140855;-66
2023/08/05 21:19:59;;;;;;;4.80;1.87;;;;;;;16.86;100.00;100078.60;5075462;56;1141322;-65
2023/08/05 21:25:05;;;;;;;1.70;1.60;;;;;;;16.83;100.00;100082.94;5071190;57;1140963;-65
2023/08/05 21:30:11;;;;;;;4.78;2.15;;;;;;;16.69;100.00;100085.80;5051294;57;1140860;-65
2023/08/05 21:35:17;;;;;;;2.00;1.47;;;;;;;16.81;100.00;100076.93;5071118;56;1140688;-65
2023/08/05 21:40:22;;;;;;;1.87;1.17;;;;;;;16.92;100.00;100065.91;5028792;57;1140836;-66
2023/08/05 21:45:29;;;;;;;1.85;1.67;;;;;;;16.87;100.00;100073.09;4985622;57;1140828;-66
2023/08/05 21:50:38;;;;;;;2.03;1.80;;;;;;;16.72;100.00;100076.62;5023894;56;1141036;-65
2023/08/05 21:55:46;;;;;;;3.17;1.70;;;;;;;16.70;100.00;100063.44;5008593;57;1140854;-64
2023/08/05 22:00:53;;;;;;;3.75;2.35;;;;;;;16.74;100.00;100063.94;5039049;56;1140922;-66
2023/08/05 22:06:14;;;;;;;3.75;1.87;;;;;;;16.75;100.00;100036.23;5127141;56;1140729;-65
2023/08/05 22:11:16;;;;;;;1.55;1.45;;;;;;;16.80;100.00;100007.19;5141788;56;1140832;-65
2023/08/05 22:16:22;;;;;;;3.73;2.27;;;;;;;16.77;100.00;99982.16;5162921;56;1140672;-67
2023/08/05 22:21:27;;;;;;;4.63;1.50;;;;;;;16.75;100.00;99956.13;5064005;56;1138749;-66
2023/08/05 22:26:33;;;;;;;3.83;2.00;;;;;;;16.70;100.00;99949.12;5057717;57;1139015;-66
2023/08/05 22:31:39;;;;;;;3.40;1.80;;;;;;;16.66;100.00;99965.98;5077461;56;1138852;-65
2023/08/05 22:36:44;;;;;;;5.37;1.77;;;;;;;16.64;100.00;99973.35;5055789;57;1138925;-65
2023/08/05 22:41:50;;;;;;;7.15;2.12;;;;;;;16.64;100.00;99956.50;5055656;57;1138769;-65
2023/08/05 22:46:55;;;;;;;5.15;3.50;;;;;;;16.60;100.00;99937.28;5075318;57;1138644;-65
2023/08/05 22:52:01;;;;;;;2.20;2.00;;;;;;;16.56;100.00;99937.78;5056990;56;1138788;-66